createdAt,value
2023-05-18T00:00:49.415Z,28.60
2023-05-18T00:05:58.034Z,26.40
2023-05-18T00:11:06.268Z,31.40
2023-05-18T00:16:16.020Z,38.40
2023-05-18T00:21:23.262Z,31.00
2023-05-18T00:26:30.376Z,33.00
2023-05-18T00:31:38.767Z,38.60
2023-05-18T00:36:47.118Z,23.20
2023-05-18T00:41:54.270Z,20.80
2023-05-18T00:47:02.192Z,16.40
2023-05-18T00:52:09.958Z,13.70
2023-05-18T00:57:19.289Z,18.00
2023-05-18T01:02:30.730Z,16.80
2023-05-18T01:07:37.979Z,17.00
2023-05-18T01:12:50.576Z,12.10
2023-05-18T01:18:10.642Z,17.80
2023-05-18T01:23:55.177Z,14.30
2023-05-18T01:29:05.304Z,19.90
2023-05-18T01:34:12.606Z,19.70
2023-05-18T01:39:20.369Z,10.50
2023-05-18T01:44:33.119Z,12.60
2023-05-18T01:49:44.664Z,7.50
2023-05-18T01:54:55.190Z,8.20
2023-05-18T02:00:07.875Z,9.30
2023-05-18T02:05:24.389Z,15.20
2023-05-18T02:10:31.732Z,14.80
2023-05-18T02:15:39.584Z,12.60
2023-05-18T02:20:49.343Z,19.00
2023-05-18T02:25:56.611Z,14.30
2023-05-18T02:31:13.198Z,9.40
2023-05-18T02:36:22.820Z,18.00
2023-05-18T02:41:29.905Z,9.80
2023-05-18T02:46:37.263Z,19.10
2023-05-18T02:51:46.720Z,14.00
2023-05-18T02:56:57.050Z,10.30
2023-05-18T03:02:16.877Z,18.50
2023-05-18T03:07:24.306Z,21.50
2023-05-18T03:12:31.564Z,15.60
2023-05-18T03:17:41.810Z,11.30
2023-05-18T03:22:49.245Z,12.40
2023-05-18T03:27:57.012Z,14.20
2023-05-18T03:33:05.059Z,10.70
2023-05-18T03:43:20.331Z,9.40
2023-05-18T03:48:28.640Z,12.80
2023-05-18T03:53:36.422Z,14.00
2023-05-18T03:58:46.174Z,15.80
2023-05-18T04:03:56.691Z,11.80
2023-05-18T04:09:07.063Z,17.00
2023-05-18T04:14:17.281Z,12.70
2023-05-18T04:19:25.276Z,14.10
2023-05-18T04:24:32.838Z,8.10
2023-05-18T04:29:44.004Z,10.80
2023-05-18T04:34:51.463Z,15.10
2023-05-18T04:40:02.273Z,10.60
2023-05-18T04:45:16.757Z,10.20
2023-05-18T04:50:26.115Z,10.80
2023-05-18T04:55:33.888Z,8.80
2023-05-18T05:00:49.862Z,9.90
2023-05-18T05:05:57.019Z,11.00
2023-05-18T05:11:04.931Z,9.40
2023-05-18T05:16:14.389Z,16.70
2023-05-18T05:21:21.653Z,13.60
2023-05-18T05:26:28.884Z,10.10
2023-05-18T05:31:36.907Z,7.40
2023-05-18T05:36:44.522Z,8.70
2023-05-18T05:41:52.045Z,13.50
2023-05-18T05:46:59.754Z,17.70
2023-05-18T05:52:10.350Z,22.60
2023-05-18T05:57:19.763Z,5.60
2023-05-18T06:02:28.873Z,8.20
2023-05-18T06:07:37.909Z,8.30
2023-05-18T06:12:45.749Z,21.90
2023-05-18T06:17:53.226Z,6.10
2023-05-18T06:23:01.276Z,14.60
2023-05-18T06:28:26.917Z,12.60
2023-05-18T06:33:40.154Z,11.60
2023-05-18T06:43:53.369Z,6.70
2023-05-18T06:49:04.969Z,4.50
2023-05-18T06:59:18.048Z,5.30
2023-05-18T07:04:25.279Z,7.40
2023-05-18T07:09:32.500Z,3.70
2023-05-18T07:14:39.853Z,2.10
2023-05-18T07:19:47.005Z,15.60
2023-05-18T07:24:54.086Z,2.80
2023-05-18T07:30:01.143Z,2.20
2023-05-18T07:35:09.169Z,3.20
2023-05-18T07:40:16.624Z,14.70
2023-05-18T07:45:24.104Z,3.30
2023-05-18T07:55:37.947Z,2.00
2023-05-18T08:00:45.645Z,7.20
2023-05-18T08:05:53.473Z,17.70
2023-05-18T08:11:02.125Z,4.30
2023-05-18T08:16:12.400Z,5.70
2023-05-18T08:21:20.341Z,2.70
2023-05-18T08:26:27.684Z,4.10
2023-05-18T08:31:35.054Z,8.10
2023-05-18T08:36:44.956Z,3.70
2023-05-18T08:41:57.239Z,3.10
2023-05-18T08:47:07.490Z,8.30
2023-05-18T08:52:19.183Z,4.60
2023-05-18T08:57:29.815Z,5.00
2023-05-18T09:02:38.091Z,7.00
2023-05-18T09:07:47.272Z,12.90
2023-05-18T09:12:56.268Z,5.20
2023-05-18T09:18:04.003Z,4.90
2023-05-18T09:28:29.291Z,2.70
2023-05-18T09:33:39.208Z,6.70
2023-05-18T09:38:47.568Z,19.00
2023-05-18T09:43:56.007Z,2.00
2023-05-18T09:49:04.900Z,7.00
2023-05-18T09:54:12.260Z,6.70
2023-05-18T09:59:19.413Z,14.50
2023-05-18T10:04:36.276Z,1.50
2023-05-18T10:09:45.458Z,5.10
2023-05-18T10:14:53.241Z,8.60
2023-05-18T10:25:11.770Z,6.40
2023-05-18T10:30:19.447Z,3.30
2023-05-18T10:35:28.598Z,3.60
2023-05-18T10:40:37.514Z,8.50
2023-05-18T10:45:47.702Z,3.70
2023-05-18T10:50:56.801Z,2.80
2023-05-18T10:56:04.193Z,5.60
2023-05-18T11:01:15.006Z,5.00
2023-05-18T11:06:27.461Z,13.60
2023-05-18T11:11:54.141Z,2.20
2023-05-18T11:17:22.065Z,2.80
2023-05-18T11:22:43.716Z,3.40
2023-05-18T11:27:51.555Z,2.20
2023-05-18T11:33:11.362Z,2.20
2023-05-18T11:38:19.616Z,9.80
2023-05-18T11:43:28.213Z,8.10
2023-05-18T11:48:36.053Z,5.40
2023-05-18T11:53:48.321Z,6.40
2023-05-18T11:59:13.664Z,2.90
2023-05-18T12:04:22.521Z,3.80
2023-05-18T12:09:32.271Z,9.10
2023-05-18T12:14:42.556Z,3.00
2023-05-18T12:19:50.661Z,6.00
2023-05-18T12:24:57.717Z,1.50
2023-05-18T12:30:05.264Z,4.20
2023-05-18T12:35:12.749Z,1.40
2023-05-18T12:40:21.129Z,6.50
2023-05-18T12:45:31.892Z,12.10
2023-05-18T12:50:47.089Z,2.80
2023-05-18T12:56:09.775Z,5.40
2023-05-18T13:01:17.817Z,1.50
2023-05-18T13:06:25.006Z,0.60
2023-05-18T13:11:32.069Z,10.10
2023-05-18T13:16:45.868Z,4.50
2023-05-18T13:22:00.034Z,3.00
2023-05-18T13:27:07.572Z,3.00
2023-05-18T13:32:14.711Z,2.10
2023-05-18T13:37:22.419Z,5.20
2023-05-18T13:42:29.769Z,6.20
2023-05-18T13:47:37.104Z,2.00
2023-05-18T13:52:44.264Z,2.70
2023-05-18T13:57:51.585Z,10.40
2023-05-18T14:02:58.748Z,2.70
2023-05-18T14:08:06.129Z,20.70
2023-05-18T14:13:13.419Z,3.30
2023-05-18T14:18:20.796Z,12.00
2023-05-18T14:23:31.517Z,3.60
2023-05-18T14:28:49.842Z,3.60
2023-05-18T14:33:57.564Z,6.50
2023-05-18T14:39:05.012Z,6.70
2023-05-18T14:44:13.839Z,7.40
2023-05-18T14:49:21.194Z,4.70
2023-05-18T14:54:31.669Z,9.00
2023-05-18T14:59:40.191Z,6.50
2023-05-18T15:04:47.514Z,9.00
2023-05-18T15:09:55.488Z,5.20
2023-05-18T15:15:02.651Z,1.00
2023-05-18T15:20:12.267Z,1.80
2023-05-18T15:25:19.920Z,2.10
2023-05-18T15:30:29.832Z,6.30
2023-05-18T15:35:38.808Z,6.30
2023-05-18T15:40:48.006Z,2.00
2023-05-18T15:45:55.195Z,3.70
2023-05-18T15:51:02.397Z,1.60
2023-05-18T15:56:10.960Z,8.60
2023-05-18T16:01:18.107Z,4.90
2023-05-18T16:06:25.361Z,6.10
2023-05-18T16:11:36.133Z,6.60
2023-05-18T16:16:43.268Z,4.70
2023-05-18T16:21:50.416Z,2.90
2023-05-18T16:26:57.756Z,7.50
2023-05-18T16:32:05.088Z,7.90
2023-05-18T16:37:12.591Z,2.60
2023-05-18T16:42:21.082Z,6.90
2023-05-18T16:47:28.842Z,8.80
2023-05-18T16:52:36.095Z,10.20
2023-05-18T16:57:43.678Z,2.20
2023-05-18T17:02:52.790Z,2.10
2023-05-18T17:08:00.169Z,2.80
2023-05-18T17:13:07.564Z,2.60
2023-05-18T17:18:14.693Z,3.60
2023-05-18T17:23:22.619Z,10.70
2023-05-18T17:33:35.304Z,4.20
2023-05-18T17:38:42.594Z,4.30
2023-05-18T17:43:49.882Z,19.60
2023-05-18T17:48:57.257Z,4.30
2023-05-18T17:54:04.706Z,5.10
2023-05-18T17:59:12.373Z,5.40
2023-05-18T18:04:23.584Z,1.90
2023-05-18T18:09:32.686Z,1.10
2023-05-18T18:14:39.978Z,8.10
2023-05-18T18:19:49.725Z,6.10
2023-05-18T18:24:57.585Z,2.00
2023-05-18T18:30:04.978Z,6.20
2023-05-18T18:35:12.721Z,12.40
2023-05-18T18:40:20.189Z,3.90
2023-05-18T18:45:29.250Z,8.90
2023-05-18T18:50:37.456Z,2.70
2023-05-18T18:55:44.623Z,9.50
2023-05-18T19:00:52.469Z,8.40
2023-05-18T19:06:03.247Z,2.90
2023-05-18T19:11:10.470Z,4.30
2023-05-18T19:16:18.518Z,5.50
2023-05-18T19:21:30.555Z,5.20
2023-05-18T19:26:38.428Z,2.20
2023-05-18T19:31:47.212Z,6.40
2023-05-18T19:42:01.105Z,5.00
2023-05-18T19:47:08.829Z,3.20
2023-05-18T19:52:18.468Z,15.30
2023-05-18T19:57:27.440Z,8.90
2023-05-18T20:02:34.669Z,1.70
2023-05-18T20:07:44.774Z,1.40
2023-05-18T20:12:52.229Z,8.20
2023-05-18T20:18:02.085Z,2.70
2023-05-18T20:23:11.302Z,3.90
2023-05-18T20:28:18.645Z,3.50
2023-05-18T20:33:32.995Z,7.50
2023-05-18T20:38:40.298Z,3.20
2023-05-18T20:43:50.476Z,6.80
2023-05-18T20:48:59.211Z,1.90
2023-05-18T20:54:07.026Z,1.90
2023-05-18T20:59:18.355Z,7.40
2023-05-18T21:04:25.713Z,5.50
2023-05-18T21:09:35.143Z,3.00
2023-05-18T21:14:42.648Z,6.00
2023-05-18T21:19:52.849Z,4.90
2023-05-18T21:25:02.762Z,4.10
2023-05-18T21:30:14.691Z,2.60
2023-05-18T21:35:22.194Z,4.90
2023-05-18T21:40:37.396Z,5.00
2023-05-18T21:45:44.600Z,5.00
2023-05-18T21:50:51.904Z,8.80
2023-05-18T21:56:10.292Z,1.60
2023-05-18T22:06:27.822Z,21.20
2023-05-18T22:11:35.337Z,4.80
2023-05-18T22:16:47.078Z,5.90
2023-05-18T22:21:54.759Z,3.20
2023-05-18T22:27:03.184Z,2.20
2023-05-18T22:32:12.282Z,5.60
2023-05-18T22:37:19.423Z,3.20
2023-05-18T22:42:29.706Z,1.50
2023-05-18T22:47:37.671Z,6.50
2023-05-18T22:57:50.879Z,13.30
2023-05-18T23:02:59.287Z,8.60
2023-05-18T23:08:06.562Z,4.00
2023-05-18T23:13:16.366Z,6.90
2023-05-18T23:18:27.034Z,3.70
2023-05-18T23:23:34.148Z,4.10
2023-05-18T23:28:41.172Z,10.90
2023-05-18T23:33:49.835Z,3.00
2023-05-18T23:39:00.218Z,2.60
2023-05-18T23:44:09.898Z,4.00
2023-05-18T23:49:17.931Z,9.20
2023-05-18T23:54:27.216Z,14.20
2023-05-18T23:59:35.815Z,5.50
